createdAt,value
2023-03-01T00:02:03.501Z,102663.06
2023-03-01T00:04:29.867Z,102666.56
2023-03-01T00:06:56.304Z,102665.66
2023-03-01T00:09:22.654Z,102659.56
2023-03-01T00:11:49.016Z,102657.81
2023-03-01T00:14:17.259Z,102657.78
2023-03-01T00:16:45.107Z,102659.53
2023-03-01T00:19:17.232Z,102661.28
2023-03-01T00:21:43.729Z,102661.22
2023-03-01T00:24:10.548Z,102654.19
2023-03-01T00:26:37.456Z,102648.00
2023-03-01T00:29:04.397Z,102650.59
2023-03-01T00:31:32.885Z,102644.44
2023-03-01T00:34:02.386Z,102642.72
2023-03-01T00:36:32.994Z,102647.06
2023-03-01T00:38:59.998Z,102640.88
2023-03-01T00:41:27.594Z,102642.66
2023-03-01T00:43:54.774Z,102640.00
2023-03-01T00:46:23.797Z,102641.75
2023-03-01T00:48:50.487Z,102633.78
2023-03-01T00:51:19.831Z,102629.41
2023-03-01T00:53:47.708Z,102626.78
2023-03-01T00:56:15.494Z,102622.38
2023-03-01T00:58:42.769Z,102617.97
2023-03-01T01:01:19.292Z,102619.69
2023-03-01T01:03:51.758Z,102626.66
2023-03-01T01:06:23.906Z,102616.97
2023-03-01T01:08:51.549Z,102629.22
2023-03-01T01:11:19.947Z,102625.69
2023-03-01T01:13:47.914Z,102620.41
2023-03-01T01:16:20.035Z,102616.84
2023-03-01T01:18:46.657Z,102613.28
2023-03-01T01:21:15.924Z,102609.75
2023-03-01T01:23:42.894Z,102608.84
2023-03-01T01:26:16.807Z,102603.59
2023-03-01T01:28:43.665Z,102602.72
2023-03-01T01:31:10.429Z,102595.69
2023-03-01T01:33:38.300Z,102593.97
2023-03-01T01:36:08.618Z,102590.50
2023-03-01T01:38:36.502Z,102585.25
2023-03-01T01:41:03.361Z,102575.69
2023-03-01T01:43:34.636Z,102578.34
2023-03-01T01:46:04.787Z,102581.78
2023-03-01T01:48:45.716Z,102580.81
2023-03-01T01:51:18.208Z,102594.84
2023-03-01T01:53:47.568Z,102588.72
2023-03-01T01:56:17.712Z,102586.25
2023-03-01T01:58:44.867Z,102580.16
2023-03-01T02:01:12.113Z,102587.16
2023-03-01T02:03:43.102Z,102581.91
2023-03-01T02:06:20.271Z,102581.91
2023-03-01T02:08:50.183Z,102568.81
2023-03-01T02:11:18.260Z,102573.22
2023-03-01T02:13:47.758Z,102562.63
2023-03-01T02:16:15.876Z,102562.56
2023-03-01T02:18:44.333Z,102565.16
2023-03-01T02:21:25.722Z,102577.34
2023-03-01T02:23:52.101Z,102547.50
2023-03-01T02:26:18.358Z,102563.28
2023-03-01T02:28:46.003Z,102564.97
2023-03-01T02:31:35.452Z,102554.47
2023-03-01T02:34:05.343Z,102552.63
2023-03-01T02:36:36.932Z,102557.81
2023-03-01T02:39:07.083Z,102556.84
2023-03-01T02:41:37.549Z,102564.59
2023-03-01T02:44:04.878Z,102562.94
2023-03-01T02:46:31.479Z,102560.28
2023-03-01T02:48:59.881Z,102571.63
2023-03-01T02:51:32.534Z,102561.25
2023-03-01T02:54:29.895Z,102571.72
2023-03-01T02:56:57.083Z,102556.94
2023-03-01T02:59:30.325Z,102571.72
2023-03-01T03:01:56.752Z,102567.19
2023-03-01T03:04:23.253Z,102563.72
2023-03-01T03:06:51.520Z,102566.38
2023-03-01T03:09:19.289Z,102566.38
2023-03-01T03:11:46.754Z,102564.63
2023-03-01T03:14:15.376Z,102560.22
2023-03-01T03:16:47.670Z,102563.72
2023-03-01T03:19:15.027Z,102561.03
2023-03-01T03:21:41.369Z,102553.13
2023-03-01T03:24:07.741Z,102546.94
2023-03-01T03:26:34.064Z,102552.97
2023-03-01T03:29:00.394Z,102553.84
2023-03-01T03:31:26.894Z,102559.91
2023-03-01T03:33:53.323Z,102557.25
2023-03-01T03:36:22.490Z,102550.38
2023-03-01T03:38:49.761Z,102551.16
2023-03-01T03:41:17.396Z,102548.53
2023-03-01T03:43:44.264Z,102538.91
2023-03-01T03:46:12.148Z,102543.25
2023-03-01T03:48:41.898Z,102541.50
2023-03-01T03:51:11.370Z,102538.81
2023-03-01T03:53:38.005Z,102528.34
2023-03-01T03:56:06.494Z,102524.88
2023-03-01T03:58:33.138Z,102532.69
2023-03-01T04:01:01.654Z,102526.53
2023-03-01T04:03:30.299Z,102519.44
2023-03-01T04:05:58.857Z,102531.59
2023-03-01T04:08:25.657Z,102519.50
2023-03-01T04:10:57.155Z,102515.00
2023-03-01T04:13:26.010Z,102514.06
2023-03-01T04:15:53.990Z,102520.19
2023-03-01T04:18:21.956Z,102514.97
2023-03-01T04:20:48.840Z,102528.16
2023-03-01T04:23:20.840Z,102520.25
2023-03-01T04:25:54.415Z,102520.25
2023-03-01T04:28:35.039Z,102514.06
2023-03-01T04:31:14.110Z,102519.25
2023-03-01T04:33:52.490Z,102520.09
2023-03-01T04:36:21.159Z,102519.28
2023-03-01T04:38:50.504Z,102516.53
2023-03-01T04:41:19.055Z,102525.19
2023-03-01T04:43:46.036Z,102520.72
2023-03-01T04:46:15.664Z,102522.41
2023-03-01T04:48:44.134Z,102517.13
2023-03-01T04:51:10.675Z,102507.53
2023-03-01T04:53:37.423Z,102508.38
2023-03-01T04:56:04.375Z,102501.34
2023-03-01T04:58:31.259Z,102507.41
2023-03-01T05:00:57.685Z,102508.31
2023-03-01T05:03:24.149Z,102511.72
2023-03-01T05:05:52.225Z,102513.31
2023-03-01T05:08:19.398Z,102503.69
2023-03-01T05:10:51.435Z,102505.31
2023-03-01T05:13:21.911Z,102503.59
2023-03-01T05:15:54.186Z,102508.75
2023-03-01T05:18:20.542Z,102500.97
2023-03-01T05:20:47.069Z,102499.25
2023-03-01T05:23:13.755Z,102493.09
2023-03-01T05:25:41.085Z,102491.38
2023-03-01T05:28:12.176Z,102500.94
2023-03-01T05:30:41.642Z,102496.59
2023-03-01T05:33:14.199Z,102499.31
2023-03-01T05:35:45.707Z,102495.72
2023-03-01T05:38:16.687Z,102495.81
2023-03-01T05:40:44.738Z,102494.97
2023-03-01T05:43:13.017Z,102493.25
2023-03-01T05:45:40.382Z,102493.31
2023-03-01T05:48:08.209Z,102495.03
2023-03-01T05:50:38.056Z,102495.78
2023-03-01T05:53:15.780Z,102494.16
2023-03-01T05:55:43.522Z,102488.03
2023-03-01T05:58:16.184Z,102495.84
2023-03-01T06:00:44.140Z,102493.25
2023-03-01T06:03:12.466Z,102495.84
2023-03-01T06:05:40.381Z,102495.06
2023-03-01T06:08:07.071Z,102490.78
2023-03-01T06:10:33.419Z,102496.06
2023-03-01T06:12:59.760Z,102484.72
2023-03-01T06:15:26.720Z,102483.88
2023-03-01T06:17:58.781Z,102476.97
2023-03-01T06:20:27.807Z,102476.16
2023-03-01T06:22:54.378Z,102479.66
2023-03-01T06:25:23.420Z,102472.59
2023-03-01T06:27:50.060Z,102477.03
2023-03-01T06:30:18.917Z,102482.25
2023-03-01T06:32:45.392Z,102473.56
2023-03-01T06:35:13.629Z,102477.13
2023-03-01T06:37:41.494Z,102475.34
2023-03-01T06:40:09.269Z,102473.69
2023-03-01T06:42:36.733Z,102480.69
2023-03-01T06:45:03.843Z,102489.31
2023-03-01T06:47:30.159Z,102484.19
2023-03-01T06:49:56.473Z,102486.84
2023-03-01T06:52:23.134Z,102486.94
2023-03-01T06:54:49.441Z,102493.09
2023-03-01T06:57:15.774Z,102486.19
2023-03-01T06:59:42.139Z,102481.94
2023-03-01T07:02:11.731Z,102491.69
2023-03-01T07:04:38.339Z,102487.31
2023-03-01T07:07:05.029Z,102483.03
2023-03-01T07:09:31.411Z,102489.19
2023-03-01T07:11:58.544Z,102477.06
2023-03-01T07:14:26.615Z,102474.56
2023-03-01T07:16:56.115Z,102479.03
2023-03-01T07:19:23.351Z,102483.47
2023-03-01T07:21:49.809Z,102476.59
2023-03-01T07:24:16.165Z,102471.34
2023-03-01T07:26:42.562Z,102469.69
2023-03-01T07:29:11.069Z,102468.84
2023-03-01T07:31:37.682Z,102465.44
2023-03-01T07:34:04.075Z,102472.41
2023-03-01T07:36:30.786Z,102470.72
2023-03-01T07:38:57.627Z,102462.94
2023-03-01T07:41:24.031Z,102474.38
2023-03-01T07:43:50.385Z,102468.31
2023-03-01T07:46:16.863Z,102470.06
2023-03-01T07:48:43.183Z,102468.41
2023-03-01T07:51:10.662Z,102459.69
2023-03-01T07:53:37.094Z,102463.22
2023-03-01T07:56:11.306Z,102469.38
2023-03-01T07:58:39.681Z,102465.03
2023-03-01T08:01:08.338Z,102469.41
2023-03-01T08:03:35.456Z,102466.84
2023-03-01T08:06:03.655Z,102468.63
2023-03-01T08:08:30.329Z,102459.00
2023-03-01T08:11:01.527Z,102466.06
2023-03-01T08:13:27.896Z,102464.34
2023-03-01T08:15:54.466Z,102462.59
2023-03-01T08:18:22.192Z,102462.66
2023-03-01T08:20:48.749Z,102469.66
2023-03-01T08:23:15.103Z,102465.28
2023-03-01T08:25:41.664Z,102461.81
2023-03-01T08:28:08.011Z,102458.31
2023-03-01T08:30:35.354Z,102456.56
2023-03-01T08:33:01.858Z,102453.03
2023-03-01T08:35:28.261Z,102458.31
2023-03-01T08:37:54.616Z,102456.56
2023-03-01T08:40:20.954Z,102452.19
2023-03-01T08:42:47.383Z,102452.19
2023-03-01T08:45:15.083Z,102454.78
2023-03-01T08:47:41.460Z,102450.38
2023-03-01T08:50:08.567Z,102440.69
2023-03-01T08:52:34.976Z,102441.56
2023-03-01T08:55:02.438Z,102439.72
2023-03-01T08:57:28.794Z,102442.25
2023-03-01T08:59:56.976Z,102437.75
2023-03-01T09:02:23.501Z,102429.69
2023-03-01T09:04:49.961Z,102433.13
2023-03-01T09:07:16.299Z,102425.16
2023-03-01T09:09:42.615Z,102429.41
2023-03-01T09:12:09.370Z,102432.97
2023-03-01T09:14:38.105Z,102424.06
2023-03-01T09:17:04.509Z,102429.31
2023-03-01T09:19:30.929Z,102424.00
2023-03-01T09:21:59.169Z,102430.06
2023-03-01T09:24:25.979Z,102426.47
2023-03-01T09:26:56.563Z,102415.78
2023-03-01T09:29:23.762Z,102415.00
2023-03-01T09:31:50.309Z,102415.59
2023-03-01T09:34:23.994Z,102416.31
2023-03-01T09:36:52.020Z,102417.28
2023-03-01T09:39:19.110Z,102417.31
2023-03-01T09:41:48.092Z,102408.19
2023-03-01T09:44:20.007Z,102402.81
2023-03-01T09:46:47.107Z,102399.22
2023-03-01T09:49:20.515Z,102394.53
2023-03-01T09:52:00.279Z,102402.31
2023-03-01T09:54:27.116Z,102395.34
2023-03-01T09:57:14.005Z,102398.16
2023-03-01T10:00:01.671Z,102394.50
2023-03-01T10:02:44.640Z,102395.88
2023-03-01T10:05:35.368Z,102403.47
2023-03-01T10:08:06.980Z,102394.72
2023-03-01T10:10:39.297Z,102398.13
2023-03-01T10:13:25.030Z,102389.91
2023-03-01T10:15:58.522Z,102387.28
2023-03-01T10:18:32.500Z,102375.16
2023-03-01T10:21:01.436Z,102377.75
2023-03-01T10:23:31.709Z,102381.19
2023-03-01T10:26:05.266Z,102375.88
2023-03-01T10:28:59.575Z,102373.22
2023-03-01T10:31:38.181Z,102362.38
2023-03-01T10:34:31.259Z,102355.00
2023-03-01T10:37:01.845Z,102350.50
2023-03-01T10:39:28.385Z,102359.91
2023-03-01T10:41:58.247Z,102359.13
2023-03-01T10:44:48.869Z,102353.16
2023-03-01T10:47:25.431Z,102360.66
2023-03-01T10:50:02.484Z,102352.41
2023-03-01T10:52:34.089Z,102348.94
2023-03-01T10:55:04.685Z,102350.69
2023-03-01T10:57:34.294Z,102324.91
2023-03-01T11:00:23.302Z,102320.25
2023-03-01T11:03:00.426Z,102327.06
2023-03-01T11:05:29.278Z,102324.72
2023-03-01T11:07:57.922Z,102324.63
2023-03-01T11:10:30.296Z,102318.28
2023-03-01T11:13:20.601Z,102325.03
2023-03-01T11:16:01.062Z,102306.31
2023-03-01T11:18:44.240Z,102310.84
2023-03-01T11:21:13.675Z,102304.09
2023-03-01T11:23:40.759Z,102298.78
2023-03-01T11:26:11.628Z,102290.44
2023-03-01T11:28:41.043Z,102294.00
2023-03-01T11:31:13.147Z,102287.84
2023-03-01T11:33:49.119Z,102288.09
2023-03-01T11:36:30.546Z,102288.69
2023-03-01T11:39:01.436Z,102285.09
2023-03-01T11:41:33.049Z,102295.06
2023-03-01T11:44:10.906Z,102300.19
2023-03-01T11:47:02.002Z,102290.41
2023-03-01T11:50:04.048Z,102282.25
2023-03-01T11:52:33.743Z,102282.75
2023-03-01T11:55:18.601Z,102282.53
2023-03-01T11:57:47.947Z,102278.31
2023-03-01T12:00:17.240Z,102266.88
2023-03-01T12:03:13.003Z,102276.91
2023-03-01T12:06:00.526Z,102272.31
2023-03-01T12:08:36.600Z,102272.50
2023-03-01T12:11:59.823Z,102269.22
2023-03-01T12:14:44.094Z,102267.91
2023-03-01T12:17:25.280Z,102269.91
2023-03-01T12:20:22.828Z,102259.34
2023-03-01T12:23:14.621Z,102255.56
2023-03-01T12:26:03.312Z,102251.16
2023-03-01T12:28:49.880Z,102243.72
2023-03-01T12:31:55.497Z,102248.91
2023-03-01T12:35:10.659Z,102240.03
2023-03-01T12:38:14.244Z,102241.09
2023-03-01T12:41:04.694Z,102234.28
2023-03-01T12:43:41.487Z,102240.13
2023-03-01T12:46:32.635Z,102229.41
2023-03-01T12:49:24.427Z,102226.69
2023-03-01T12:52:21.959Z,102222.91
2023-03-01T12:54:50.103Z,102220.72
2023-03-01T12:57:26.740Z,102220.06
2023-03-01T13:00:23.065Z,102224.44
2023-03-01T13:02:59.103Z,102226.72
2023-03-01T13:05:31.586Z,102223.44
2023-03-01T13:08:35.569Z,102211.00
2023-03-01T13:11:08.132Z,102212.25
2023-03-01T13:13:34.481Z,102217.94
2023-03-01T13:16:30.336Z,102210.31
2023-03-01T13:19:22.819Z,102213.97
2023-03-01T13:21:50.982Z,102208.66
2023-03-01T13:24:41.161Z,102202.16
2023-03-01T13:27:07.580Z,102200.41
2023-03-01T13:29:51.990Z,102198.00
2023-03-01T13:32:44.270Z,102183.25
2023-03-01T13:35:20.652Z,102180.81
2023-03-01T13:37:47.845Z,102183.59
2023-03-01T13:40:17.763Z,102186.41
2023-03-01T13:42:53.674Z,102183.91
2023-03-01T13:45:43.861Z,102187.78
2023-03-01T13:48:24.060Z,102171.66
2023-03-01T13:50:55.641Z,102167.66
2023-03-01T13:53:30.469Z,102169.28
2023-03-01T13:56:04.528Z,102158.63
2023-03-01T13:58:44.799Z,102165.13
2023-03-01T14:01:30.133Z,102153.16
2023-03-01T14:03:57.126Z,102153.06
2023-03-01T14:06:32.821Z,102155.06
2023-03-01T14:09:05.579Z,102152.16
2023-03-01T14:12:01.392Z,102147.00
2023-03-01T14:14:45.768Z,102142.06
2023-03-01T14:17:25.696Z,102128.59
2023-03-01T14:19:58.486Z,102137.22
2023-03-01T14:22:29.383Z,102131.41
2023-03-01T14:25:02.085Z,102135.16
2023-03-01T14:27:37.212Z,102130.72
2023-03-01T14:30:11.155Z,102123.91
2023-03-01T14:32:37.546Z,102120.31
2023-03-01T14:35:28.834Z,102119.53
2023-03-01T14:37:55.284Z,102113.38
2023-03-01T14:40:26.203Z,102109.41
2023-03-01T14:42:54.657Z,102100.22
2023-03-01T14:45:21.119Z,102102.84
2023-03-01T14:47:48.233Z,102105.28
2023-03-01T14:50:28.391Z,102104.25
2023-03-01T14:52:59.142Z,102099.63
2023-03-01T14:55:36.978Z,102098.88
2023-03-01T14:58:06.058Z,102096.16
2023-03-01T15:00:35.227Z,102087.84
2023-03-01T15:03:10.688Z,102078.09
2023-03-01T15:05:37.762Z,102084.75
2023-03-01T15:08:05.323Z,102082.38
2023-03-01T15:10:34.989Z,102072.19
2023-03-01T15:13:43.439Z,102074.88
2023-03-01T15:16:12.610Z,102063.09
2023-03-01T15:18:45.623Z,102068.50
2023-03-01T15:21:23.788Z,102060.72
2023-03-01T15:23:54.489Z,102074.53
2023-03-01T15:26:26.948Z,102062.50
2023-03-01T15:28:58.953Z,102053.81
2023-03-01T15:31:29.003Z,102058.41
2023-03-01T15:34:25.739Z,102059.84
2023-03-01T15:36:54.764Z,102057.19
2023-03-01T15:39:44.225Z,102050.16
2023-03-01T15:42:30.704Z,102051.00
2023-03-01T15:45:22.017Z,102057.81
2023-03-01T15:47:51.188Z,102047.91
2023-03-01T15:50:30.018Z,102051.53
2023-03-01T15:52:59.934Z,102048.13
2023-03-01T15:55:30.549Z,102052.53
2023-03-01T15:58:04.371Z,102052.41
2023-03-01T16:00:30.971Z,102057.75
2023-03-01T16:02:57.670Z,102051.63
2023-03-01T16:05:27.850Z,102047.66
2023-03-01T16:07:54.744Z,102047.97
2023-03-01T16:10:21.826Z,102057.97
2023-03-01T16:12:48.353Z,102049.06
2023-03-01T16:15:19.343Z,102042.78
2023-03-01T16:17:45.827Z,102045.22
2023-03-01T16:20:28.368Z,102043.34
2023-03-01T16:22:58.750Z,102038.09
2023-03-01T16:25:25.095Z,102047.56
2023-03-01T16:27:53.096Z,102042.31
2023-03-01T16:30:21.683Z,102035.44
2023-03-01T16:32:49.448Z,102037.34
2023-03-01T16:35:19.229Z,102037.75
2023-03-01T16:37:46.249Z,102036.97
2023-03-01T16:40:27.966Z,102038.91
2023-03-01T16:43:00.118Z,102034.59
2023-03-01T16:45:28.325Z,102040.78
2023-03-01T16:47:56.121Z,102038.28
2023-03-01T16:50:23.408Z,102043.69
2023-03-01T16:52:50.165Z,102031.50
2023-03-01T16:55:16.662Z,102028.88
2023-03-01T16:57:43.316Z,102034.53
2023-03-01T17:00:13.564Z,102038.44
2023-03-01T17:02:41.885Z,102043.88
2023-03-01T17:05:10.743Z,102042.50
2023-03-01T17:07:37.464Z,102047.72
2023-03-01T17:10:08.886Z,102049.50
2023-03-01T17:12:35.868Z,102047.25
2023-03-01T17:15:02.855Z,102042.97
2023-03-01T17:17:29.224Z,102046.38
2023-03-01T17:19:55.542Z,102050.19
2023-03-01T17:22:21.961Z,102049.59
2023-03-01T17:24:48.579Z,102050.75
2023-03-01T17:27:15.889Z,102048.88
2023-03-01T17:29:42.285Z,102055.97
2023-03-01T17:32:09.527Z,102054.38
2023-03-01T17:34:37.274Z,102056.22
2023-03-01T17:37:03.629Z,102046.91
2023-03-01T17:39:35.903Z,102050.38
2023-03-01T17:42:06.048Z,102069.22
2023-03-01T17:44:36.361Z,102064.94
2023-03-01T17:47:04.135Z,102061.38
2023-03-01T17:49:31.057Z,102065.00
2023-03-01T17:51:57.658Z,102065.75
2023-03-01T17:54:24.361Z,102060.56
2023-03-01T17:56:51.468Z,102056.38
2023-03-01T17:59:18.111Z,102058.31
2023-03-01T18:01:45.114Z,102066.50
2023-03-01T18:04:11.555Z,102058.84
2023-03-01T18:06:38.062Z,102071.09
2023-03-01T18:09:04.842Z,102063.28
2023-03-01T18:11:34.051Z,102070.66
2023-03-01T18:14:00.781Z,102071.34
2023-03-01T18:16:28.660Z,102074.94
2023-03-01T18:18:56.788Z,102066.97
2023-03-01T18:21:23.528Z,102080.25
2023-03-01T18:23:50.081Z,102074.94
2023-03-01T18:26:20.312Z,102076.06
2023-03-01T18:28:50.636Z,102068.28
2023-03-01T18:31:18.414Z,102069.13
2023-03-01T18:33:46.458Z,102068.28
2023-03-01T18:36:18.099Z,102058.56
2023-03-01T18:38:44.631Z,102070.09
2023-03-01T18:41:11.163Z,102056.06
2023-03-01T18:43:40.050Z,102058.81
2023-03-01T18:46:06.628Z,102053.63
2023-03-01T18:48:33.227Z,102056.50
2023-03-01T18:51:08.513Z,102057.25
2023-03-01T18:53:34.850Z,102053.00
2023-03-01T18:56:02.145Z,102048.56
2023-03-01T18:58:28.760Z,102044.97
2023-03-01T19:00:55.129Z,102048.72
2023-03-01T19:03:21.500Z,102041.50
2023-03-01T19:05:47.828Z,102043.44
2023-03-01T19:08:14.592Z,102043.63
2023-03-01T19:10:41.012Z,102038.38
2023-03-01T19:13:07.405Z,102049.03
2023-03-01T19:15:33.803Z,102045.41
2023-03-01T19:18:01.532Z,102037.66
2023-03-01T19:20:27.877Z,102033.25
2023-03-01T19:22:54.235Z,102030.63
2023-03-01T19:25:20.566Z,102034.34
2023-03-01T19:27:48.944Z,102029.00
2023-03-01T19:30:15.600Z,102035.19
2023-03-01T19:32:41.978Z,102041.59
2023-03-01T19:35:08.560Z,102041.59
2023-03-01T19:37:35.226Z,102047.78
2023-03-01T19:40:01.784Z,102049.63
2023-03-01T19:42:28.254Z,102045.03
2023-03-01T19:44:55.034Z,102048.66
2023-03-01T19:47:21.459Z,102047.91
2023-03-01T19:49:47.982Z,102051.44
2023-03-01T19:52:14.323Z,102054.97
2023-03-01T19:54:40.660Z,102040.97
2023-03-01T19:57:07.006Z,102045.56
2023-03-01T19:59:33.514Z,102043.75
2023-03-01T20:02:00.202Z,102042.97
2023-03-01T20:04:26.660Z,102042.97
2023-03-01T20:06:53.004Z,102040.41
2023-03-01T20:09:22.139Z,102047.34
2023-03-01T20:11:50.281Z,102050.03
2023-03-01T20:14:17.305Z,102039.63
2023-03-01T20:16:43.676Z,102052.94
2023-03-01T20:19:10.013Z,102043.22
2023-03-01T20:21:36.428Z,102046.63
2023-03-01T20:24:02.782Z,102051.03
2023-03-01T20:26:29.199Z,102062.59
2023-03-01T20:28:56.981Z,102060.84
2023-03-01T20:31:29.211Z,102062.59
2023-03-01T20:33:58.199Z,102062.59
2023-03-01T20:36:25.605Z,102055.66
2023-03-01T20:38:53.360Z,102057.47
2023-03-01T20:41:20.146Z,102057.50
2023-03-01T20:43:54.397Z,102050.44
2023-03-01T20:46:21.133Z,102045.22
2023-03-01T20:48:47.474Z,102053.16
2023-03-01T20:51:13.868Z,102055.88
2023-03-01T20:53:40.685Z,102051.38
2023-03-01T20:56:10.826Z,102053.97
2023-03-01T20:58:38.063Z,102054.09
2023-03-01T21:01:06.355Z,102048.88
2023-03-01T21:03:33.496Z,102047.94
2023-03-01T21:06:02.309Z,102041.72
2023-03-01T21:08:29.880Z,102039.16
2023-03-01T21:10:57.714Z,102041.06
2023-03-01T21:13:25.356Z,102041.88
2023-03-01T21:15:56.519Z,102042.72
2023-03-01T21:18:23.609Z,102041.84
2023-03-01T21:20:49.957Z,102032.22
2023-03-01T21:23:19.199Z,102035.72
2023-03-01T21:25:45.562Z,102028.66
2023-03-01T21:28:11.898Z,102029.66
2023-03-01T21:30:38.381Z,102035.72
2023-03-01T21:33:04.754Z,102037.63
2023-03-01T21:35:31.128Z,102035.91
2023-03-01T21:37:57.501Z,102027.00
2023-03-01T21:40:23.822Z,102027.97
2023-03-01T21:42:50.276Z,102026.25
2023-03-01T21:45:16.750Z,102020.88
2023-03-01T21:47:43.230Z,102016.53
2023-03-01T21:50:10.213Z,102015.75
2023-03-01T21:52:36.561Z,102019.28
2023-03-01T21:55:04.082Z,102022.72
2023-03-01T21:57:30.404Z,102012.06
2023-03-01T21:59:56.939Z,102018.28
2023-03-01T22:02:23.307Z,102025.44
2023-03-01T22:04:57.131Z,102025.56
2023-03-01T22:07:23.615Z,102021.16
2023-03-01T22:09:49.973Z,102021.97
2023-03-01T22:12:16.302Z,102016.78
2023-03-01T22:14:43.856Z,102020.47
2023-03-01T22:17:10.335Z,102025.56
2023-03-01T22:19:36.707Z,102014.16
2023-03-01T22:22:03.825Z,102017.66
2023-03-01T22:24:30.274Z,102015.06
2023-03-01T22:26:56.770Z,102027.44
2023-03-01T22:29:28.889Z,102017.66
2023-03-01T22:31:57.148Z,102016.06
2023-03-01T22:34:24.160Z,102012.56
2023-03-01T22:36:50.556Z,102015.31
2023-03-01T22:39:19.635Z,102017.03
2023-03-01T22:41:47.857Z,102011.81
2023-03-01T22:44:16.277Z,102015.19
2023-03-01T22:46:43.141Z,102008.31
2023-03-01T22:49:10.212Z,102018.81
2023-03-01T22:51:39.399Z,102012.72
2023-03-01T22:54:06.988Z,102016.22
2023-03-01T22:56:35.362Z,102009.16
2023-03-01T22:59:04.400Z,102013.53
2023-03-01T23:01:31.197Z,102012.66
2023-03-01T23:03:57.794Z,102010.03
2023-03-01T23:06:24.759Z,101996.03
2023-03-01T23:08:52.997Z,101997.81
2023-03-01T23:11:21.050Z,102004.00
2023-03-01T23:13:48.466Z,101999.63
2023-03-01T23:16:15.812Z,102003.19
2023-03-01T23:18:42.790Z,102008.47
2023-03-01T23:21:15.838Z,102001.53
2023-03-01T23:23:42.484Z,102002.50
2023-03-01T23:26:09.249Z,101995.44
2023-03-01T23:28:40.614Z,102004.22
2023-03-01T23:31:10.155Z,102000.72
2023-03-01T23:33:39.770Z,101998.03
2023-03-01T23:36:24.539Z,101994.53
2023-03-01T23:38:53.010Z,101997.22
2023-03-01T23:41:22.473Z,101999.84
2023-03-01T23:43:51.419Z,102002.44
2023-03-01T23:46:19.760Z,102002.50
2023-03-01T23:48:46.522Z,101997.25
2023-03-01T23:51:14.838Z,102004.28
2023-03-01T23:53:54.121Z,102004.38
2023-03-01T23:56:33.191Z,102000.88
2023-03-01T23:59:02.595Z,102012.38
